Time;durP1;ratioP1;P1;durP2;ratioP2;P2;SDS_P1;SDS_P2;PMS_P1;PMS_P2;Temp;Humidity;BMP_temperature;BMP_pressure;BME280_temperature;BME280_humidity;BME280_pressure;Samples;Min_cycle;Max_cycle;Signal;HPM_P1;HPM_P2
2021/10/12 00:00:05;;;;;;;56.83;36.58;;;9.30;99.90;;;;;;5067430;28;20686;-79
2021/10/12 00:02:32;;;;;;;64.00;38.70;;;9.30;99.90;;;;;;5062102;28;20230;-77
2021/10/12 00:04:59;;;;;;;57.40;37.47;;;9.40;99.90;;;;;;5059086;28;20297;-78
2021/10/12 00:07:26;;;;;;;60.13;37.60;;;9.40;99.90;;;;;;5067952;28;20194;-79
2021/10/12 00:09:53;;;;;;;58.05;35.83;;;9.40;99.90;;;;;;5076430;28;20202;-79
2021/10/12 00:12:24;;;;;;;56.30;35.00;;;9.50;99.90;;;;;;5069291;28;20215;-78
2021/10/12 00:14:52;;;;;;;60.90;35.60;;;9.40;99.90;;;;;;5058886;28;20211;-79
2021/10/12 00:17:19;;;;;;;53.25;33.97;;;9.40;99.90;;;;;;5058450;28;20228;-78
2021/10/12 00:19:46;;;;;;;57.50;34.97;;;9.50;99.90;;;;;;5058792;28;20202;-79
2021/10/12 00:22:13;;;;;;;55.95;36.17;;;9.40;99.90;;;;;;5059307;28;20301;-79
2021/10/12 00:24:40;;;;;;;63.47;35.97;;;9.40;99.90;;;;;;5060459;28;20293;-79
2021/10/12 00:27:07;;;;;;;53.45;34.97;;;9.50;99.90;;;;;;5065288;28;20210;-79
2021/10/12 00:29:34;;;;;;;59.20;35.78;;;9.50;99.90;;;;;;5068571;28;20272;-79
2021/10/12 00:32:03;;;;;;;64.47;37.25;;;9.50;99.90;;;;;;5072632;28;20307;-79
2021/10/12 00:34:30;;;;;;;59.75;35.92;;;9.50;99.90;;;;;;5075559;28;20200;-80
2021/10/12 00:36:57;;;;;;;60.33;35.72;;;9.50;99.90;;;;;;5075123;28;20213;-77
2021/10/12 00:39:24;;;;;;;52.70;35.45;;;9.50;99.90;;;;;;5072713;28;20219;-78
2021/10/12 00:41:51;;;;;;;54.85;34.55;;;9.50;99.90;;;;;;5059467;28;20233;-78
2021/10/12 00:44:18;;;;;;;61.25;36.20;;;9.50;99.90;;;;;;5063520;28;20233;-78
2021/10/12 00:46:45;;;;;;;57.72;35.40;;;9.60;99.90;;;;;;5066533;28;20250;-79
2021/10/12 00:49:13;;;;;;;60.40;36.33;;;9.60;99.90;;;;;;5063890;28;20211;-78
2021/10/12 00:51:40;;;;;;;60.10;37.78;;;9.60;99.90;;;;;;5077161;28;20227;-80
2021/10/12 00:54:07;;;;;;;59.83;37.60;;;9.60;99.90;;;;;;5070393;28;20206;-78
2021/10/12 00:56:34;;;;;;;60.65;37.30;;;9.70;99.90;;;;;;5059129;28;20736;-78
2021/10/12 00:59:07;;;;;;;55.72;36.25;;;9.60;99.90;;;;;;5059120;28;20210;-78
2021/10/12 01:01:34;;;;;;;54.35;34.47;;;9.60;99.90;;;;;;5058104;28;20238;-77
2021/10/12 01:04:01;;;;;;;57.97;36.70;;;9.70;99.90;;;;;;5057110;28;20252;-78
2021/10/12 01:06:29;;;;;;;55.88;34.45;;;9.70;99.90;;;;;;5057200;28;20599;-78
2021/10/12 01:08:56;;;;;;;55.00;35.25;;;9.70;99.90;;;;;;5056900;28;20207;-78
2021/10/12 01:11:23;;;;;;;50.97;34.13;;;9.60;99.90;;;;;;5057277;28;20229;-78
2021/10/12 01:13:50;;;;;;;55.83;34.17;;;9.60;99.90;;;;;;5056352;28;20757;-78
2021/10/12 01:16:17;;;;;;;55.33;33.67;;;9.70;99.90;;;;;;5056712;28;20206;-78
2021/10/12 01:18:56;;;;;;;53.05;33.97;;;9.70;99.90;;;;;;5056667;28;20214;-78
2021/10/12 01:21:24;;;;;;;51.95;35.30;;;9.70;99.90;;;;;;5068453;28;20226;-78
2021/10/12 01:23:51;;;;;;;49.90;32.95;;;9.70;99.90;;;;;;5060526;28;20297;-78
2021/10/12 01:26:18;;;;;;;54.35;32.60;;;9.70;99.90;;;;;;5056528;28;20272;-78
2021/10/12 01:28:45;;;;;;;50.05;34.17;;;9.70;99.90;;;;;;5056353;28;20298;-77
2021/10/12 01:31:17;;;;;;;57.72;35.00;;;9.70;99.90;;;;;;5055706;28;20241;-78
2021/10/12 01:33:44;;;;;;;59.33;35.45;;;9.80;99.90;;;;;;5057929;28;20206;-78
2021/10/12 01:36:11;;;;;;;52.58;34.38;;;9.80;99.90;;;;;;5071573;28;20234;-79
2021/10/12 01:38:40;;;;;;;54.88;34.25;;;9.80;99.90;;;;;;5065498;28;20565;-78
2021/10/12 01:41:06;;;;;;;53.70;34.20;;;9.80;99.90;;;;;;5055021;28;20317;-77
2021/10/12 01:43:33;;;;;;;54.67;35.55;;;9.80;99.90;;;;;;5054874;28;20218;-78
2021/10/12 01:46:00;;;;;;;57.55;34.30;;;9.80;99.90;;;;;;5055734;28;20218;-78
2021/10/12 01:48:27;;;;;;;52.47;34.13;;;9.80;99.90;;;;;;5056991;28;20214;-77
2021/10/12 01:50:55;;;;;;;55.08;34.40;;;9.80;99.90;;;;;;5058834;28;20223;-77
2021/10/12 01:53:22;;;;;;;57.03;34.92;;;9.80;99.90;;;;;;5057922;28;20213;-78
2021/10/12 01:55:50;;;;;;;51.55;32.95;;;9.80;99.90;;;;;;5057678;28;20285;-78
2021/10/12 01:58:17;;;;;;;59.42;35.22;;;9.80;99.90;;;;;;5058384;28;20578;-78
2021/10/12 02:00:44;;;;;;;55.17;35.35;;;9.80;99.90;;;;;;5056539;28;20227;-78
2021/10/12 02:03:11;;;;;;;59.55;35.22;;;9.80;99.90;;;;;;5056788;28;20273;-78
2021/10/12 02:05:38;;;;;;;50.38;33.60;;;9.80;99.90;;;;;;5056587;28;20202;-78
2021/10/12 02:08:05;;;;;;;52.40;33.55;;;9.80;99.90;;;;;;5058309;28;20213;-79
2021/10/12 02:10:32;;;;;;;53.50;34.25;;;9.80;99.90;;;;;;5058200;28;20222;-79
2021/10/12 02:13:02;;;;;;;56.38;35.58;;;9.80;99.90;;;;;;5060561;28;20305;-79
2021/10/12 02:15:37;;;;;;;57.05;34.70;;;9.80;99.90;;;;;;5061177;28;20298;-78
2021/10/12 02:18:07;;;;;;;53.88;35.13;;;9.80;99.90;;;;;;5059678;28;20206;-78
2021/10/12 02:20:36;;;;;;;50.92;35.10;;;9.80;99.90;;;;;;5059557;28;20223;-78
2021/10/12 02:23:06;;;;;;;56.45;35.03;;;9.80;99.90;;;;;;5058315;28;20203;-78
2021/10/12 02:25:33;;;;;;;62.08;36.03;;;9.70;99.90;;;;;;5058085;28;20298;-79
2021/10/12 02:28:02;;;;;;;49.30;32.40;;;9.80;99.90;;;;;;5058753;28;20210;-78
2021/10/12 02:30:32;;;;;;;56.17;36.50;;;9.80;99.90;;;;;;5058471;28;20278;-79
2021/10/12 02:32:59;;;;;;;56.67;34.85;;;9.80;99.90;;;;;;5058645;28;20210;-78
2021/10/12 02:35:32;;;;;;;58.08;35.03;;;9.80;99.90;;;;;;5063480;28;20206;-78
2021/10/12 02:37:59;;;;;;;57.45;35.75;;;9.80;99.90;;;;;;5069600;28;20234;-78
2021/10/12 02:40:26;;;;;;;56.17;34.22;;;9.80;99.90;;;;;;5061122;28;20226;-80
2021/10/12 02:42:53;;;;;;;51.17;32.78;;;9.90;99.90;;;;;;5067566;28;20211;-78
2021/10/12 02:45:21;;;;;;;54.40;34.88;;;9.90;99.90;;;;;;5072819;28;20225;-79
2021/10/12 02:47:48;;;;;;;57.78;35.63;;;9.80;99.90;;;;;;5061689;28;20217;-79
2021/10/12 02:50:18;;;;;;;54.25;35.30;;;9.80;99.90;;;;;;5061158;28;20240;-79
2021/10/12 02:52:54;;;;;;;53.97;33.78;;;9.90;99.90;;;;;;5067694;28;20206;-79
2021/10/12 02:55:21;;;;;;;52.33;35.10;;;9.90;99.90;;;;;;5074593;28;20198;-79
2021/10/12 02:57:48;;;;;;;58.75;34.28;;;9.90;99.90;;;;;;5076929;28;20210;-79
2021/10/12 03:00:15;;;;;;;57.92;34.70;;;9.80;99.90;;;;;;5076840;28;20650;-79
2021/10/12 03:02:43;;;;;;;55.65;35.20;;;9.80;99.90;;;;;;5059367;28;20579;-79
2021/10/12 03:05:12;;;;;;;57.40;33.97;;;9.80;99.90;;;;;;5064040;28;20206;-79
2021/10/12 03:07:39;;;;;;;57.67;35.47;;;9.80;99.90;;;;;;5058168;28;20241;-79
2021/10/12 03:10:08;;;;;;;59.50;37.33;;;9.80;99.90;;;;;;5058165;28;20747;-79
2021/10/12 03:12:35;;;;;;;60.05;34.97;;;9.80;99.90;;;;;;5064044;28;20226;-79
2021/10/12 03:15:02;;;;;;;57.25;34.30;;;9.80;99.90;;;;;;5076449;28;20206;-80
2021/10/12 03:17:29;;;;;;;58.08;34.45;;;9.70;99.90;;;;;;5062561;28;20207;-79
2021/10/12 03:19:57;;;;;;;50.42;33.13;;;9.70;99.90;;;;;;5057052;28;20580;-79
2021/10/12 03:22:24;;;;;;;53.30;33.00;;;9.70;99.90;;;;;;5058229;28;20246;-79
2021/10/12 03:24:51;;;;;;;50.45;33.08;;;9.70;99.90;;;;;;5073787;28;20232;-79
2021/10/12 03:27:18;;;;;;;51.65;32.20;;;9.70;99.90;;;;;;5070773;28;20213;-80
2021/10/12 03:29:45;;;;;;;54.70;34.30;;;9.70;99.90;;;;;;5060053;28;20574;-79
2021/10/12 03:32:12;;;;;;;51.90;32.78;;;9.70;99.90;;;;;;5056339;28;20233;-78
2021/10/12 03:34:39;;;;;;;57.65;32.83;;;9.60;99.90;;;;;;5055666;28;20221;-79
2021/10/12 03:37:07;;;;;;;59.75;34.03;;;9.60;99.90;;;;;;5055591;28;20207;-79
2021/10/12 03:39:34;;;;;;;52.40;34.10;;;9.60;99.90;;;;;;5054721;28;20202;-79
2021/10/12 03:42:01;;;;;;;54.55;34.00;;;9.60;99.90;;;;;;5054732;28;20598;-79
2021/10/12 03:44:29;;;;;;;55.75;32.30;;;9.60;99.90;;;;;;5054974;28;20221;-79
2021/10/12 03:46:56;;;;;;;52.95;33.65;;;9.60;99.90;;;;;;5055280;28;20209;-79
2021/10/12 03:49:25;;;;;;;51.83;33.45;;;9.70;99.90;;;;;;5055573;28;20217;-79
2021/10/12 03:51:54;;;;;;;51.78;33.28;;;9.60;99.90;;;;;;5063148;28;20627;-80
2021/10/12 03:54:22;;;;;;;54.60;33.65;;;9.60;99.90;;;;;;5069300;28;20207;-80
2021/10/12 03:56:50;;;;;;;58.25;34.60;;;9.60;99.90;;;;;;5061797;28;20213;-79
2021/10/12 03:59:19;;;;;;;54.85;34.70;;;9.60;99.90;;;;;;5059149;28;20578;-79
2021/10/12 04:01:46;;;;;;;53.08;33.33;;;9.60;99.90;;;;;;5059870;28;20227;-77
2021/10/12 04:04:13;;;;;;;65.18;36.90;;;9.60;99.90;;;;;;5055731;28;20701;-80
2021/10/12 04:06:40;;;;;;;57.47;33.97;;;9.60;99.90;;;;;;5056994;28;20202;-80
2021/10/12 04:09:07;;;;;;;62.40;35.35;;;9.60;99.90;;;;;;5056697;28;20207;-79
2021/10/12 04:11:35;;;;;;;52.33;32.38;;;9.50;99.90;;;;;;5056965;28;20229;-79
2021/10/12 04:14:02;;;;;;;55.83;33.75;;;9.60;99.90;;;;;;5054520;28;20214;-78
2021/10/12 04:16:30;;;;;;;56.45;34.97;;;9.60;99.90;;;;;;5055622;28;20202;-78
2021/10/12 04:18:57;;;;;;;55.78;34.05;;;9.50;99.90;;;;;;5054963;28;20206;-79
2021/10/12 04:21:24;;;;;;;51.72;32.10;;;9.50;99.90;;;;;;5058355;28;20428;-79
2021/10/12 04:23:51;;;;;;;59.97;35.08;;;9.50;99.90;;;;;;5059109;28;20202;-80
2021/10/12 04:26:19;;;;;;;61.05;35.38;;;9.50;99.90;;;;;;5073278;28;20282;-78
2021/10/12 04:28:47;;;;;;;53.58;35.38;;;9.50;99.90;;;;;;5078930;28;20198;-77
2021/10/12 04:31:14;;;;;;;59.00;35.45;;;9.50;99.90;;;;;;5079041;28;20238;-78
2021/10/12 04:33:41;;;;;;;62.67;36.38;;;9.50;99.90;;;;;;5078152;28;20217;-77
2021/10/12 04:36:08;;;;;;;68.72;35.42;;;9.50;99.90;;;;;;5072124;28;20213;-79
2021/10/12 04:38:35;;;;;;;69.55;38.85;;;9.50;99.90;;;;;;5063935;28;20216;-79
2021/10/12 04:41:03;;;;;;;67.25;37.03;;;9.50;99.90;;;;;;5063694;28;20237;-79
2021/10/12 04:43:33;;;;;;;61.67;35.83;;;9.50;99.90;;;;;;5064264;28;20225;-79
2021/10/12 04:46:01;;;;;;;61.17;36.35;;;9.50;99.90;;;;;;5068268;28;20735;-77
2021/10/12 04:48:28;;;;;;;59.78;36.38;;;9.50;99.90;;;;;;5079553;28;20202;-76
2021/10/12 04:50:56;;;;;;;65.80;36.03;;;9.50;99.90;;;;;;5074359;28;20286;-80
2021/10/12 04:53:23;;;;;;;59.65;35.80;;;9.50;99.90;;;;;;5060904;28;20206;-78
2021/10/12 04:55:51;;;;;;;56.55;33.72;;;9.50;99.90;;;;;;5058238;28;20298;-78
2021/10/12 04:58:18;;;;;;;58.88;36.08;;;9.60;99.90;;;;;;5059759;28;20237;-78
2021/10/12 05:00:45;;;;;;;60.63;36.38;;;9.50;99.90;;;;;;5057963;28;20299;-78
2021/10/12 05:03:13;;;;;;;57.40;35.58;;;9.50;99.90;;;;;;5058811;28;20317;-79
2021/10/12 05:05:40;;;;;;;60.55;35.88;;;9.60;99.90;;;;;;5059772;28;20220;-79
2021/10/12 05:08:06;;;;;;;54.42;34.97;;;9.60;99.90;;;;;;5059960;28;20280;-79
2021/10/12 05:10:33;;;;;;;61.05;36.30;;;9.60;99.90;;;;;;5059427;28;20616;-78
2021/10/12 05:13:00;;;;;;;58.75;35.25;;;9.50;99.90;;;;;;5060704;28;20206;-78
2021/10/12 05:15:28;;;;;;;54.67;34.78;;;9.50;99.90;;;;;;5068365;28;20251;-79
2021/10/12 05:17:56;;;;;;;63.42;35.50;;;9.50;99.90;;;;;;5064577;28;20215;-78
2021/10/12 05:20:25;;;;;;;60.20;36.55;;;9.40;99.90;;;;;;5066841;28;20226;-79
2021/10/12 05:22:52;;;;;;;56.40;36.17;;;9.50;99.90;;;;;;5064738;28;20219;-79
2021/10/12 05:25:18;;;;;;;63.92;37.63;;;9.50;99.90;;;;;;5057846;28;20645;-79
2021/10/12 05:27:46;;;;;;;64.50;37.25;;;9.50;99.90;;;;;;5058083;28;20574;-79
2021/10/12 05:30:14;;;;;;;62.70;36.58;;;9.50;99.90;;;;;;5056867;28;20240;-79
2021/10/12 05:32:41;;;;;;;60.97;35.95;;;9.50;99.90;;;;;;5057602;28;20218;-79
2021/10/12 05:35:10;;;;;;;68.45;37.58;;;9.50;99.90;;;;;;5056742;28;20645;-78
2021/10/12 05:37:38;;;;;;;65.68;35.10;;;9.50;99.90;;;;;;5060398;28;20218;-80
2021/10/12 05:40:07;;;;;;;56.38;35.22;;;9.50;99.90;;;;;;5060759;28;20290;-79
2021/10/12 05:42:34;;;;;;;63.95;35.00;;;9.50;99.90;;;;;;5062099;28;20222;-81
2021/10/12 05:45:01;;;;;;;60.42;36.38;;;9.40;99.90;;;;;;5067365;28;20233;-80
2021/10/12 05:47:28;;;;;;;56.90;34.38;;;9.40;99.90;;;;;;5079460;28;20190;-80
2021/10/12 05:49:55;;;;;;;59.80;36.80;;;9.40;99.90;;;;;;5060951;28;20639;-79
2021/10/12 05:52:23;;;;;;;65.22;36.13;;;9.40;99.90;;;;;;5077557;28;20190;-80
2021/10/12 05:55:03;;;;;;;62.90;34.47;;;9.50;99.90;;;;;;5079227;28;20237;-80
2021/10/12 05:57:38;;;;;;;59.50;36.17;;;9.40;99.90;;;;;;5063594;28;20382;-80
2021/10/12 06:00:06;;;;;;;56.60;34.40;;;9.40;99.90;;;;;;5060343;28;20547;-80
2021/10/12 06:02:33;;;;;;;62.95;35.55;;;9.30;99.90;;;;;;5059574;28;20294;-81
2021/10/12 06:05:00;;;;;;;65.80;36.08;;;9.40;99.90;;;;;;5060128;28;20667;-81
2021/10/12 06:07:27;;;;;;;61.90;33.50;;;9.30;99.90;;;;;;5060770;28;20286;-81
2021/10/12 06:09:55;;;;;;;57.25;34.55;;;9.40;99.90;;;;;;5060905;28;20662;-81
2021/10/12 06:12:22;;;;;;;59.60;33.28;;;9.30;99.90;;;;;;5061566;28;20209;-82
2021/10/12 06:14:49;;;;;;;60.58;34.08;;;9.30;99.90;;;;;;5070567;28;20206;-83
2021/10/12 06:17:15;;;;;;;59.00;34.47;;;9.30;99.90;;;;;;5078708;28;20190;-82
2021/10/12 06:19:42;;;;;;;61.80;34.67;;;9.30;99.90;;;;;;5066286;28;20261;-81
2021/10/12 06:22:09;;;;;;;56.90;34.42;;;9.30;99.90;;;;;;5063566;28;20269;-81
2021/10/12 06:24:36;;;;;;;58.15;34.88;;;9.40;99.90;;;;;;5061450;28;20242;-80
2021/10/12 06:27:04;;;;;;;61.97;35.25;;;9.40;99.90;;;;;;5060683;28;20242;-80
2021/10/12 06:29:31;;;;;;;66.65;35.15;;;9.30;99.90;;;;;;5059881;28;20203;-80
2021/10/12 06:31:58;;;;;;;61.47;36.53;;;9.30;99.90;;;;;;5060012;28;20324;-80
2021/10/12 06:34:25;;;;;;;53.42;32.33;;;9.40;99.90;;;;;;5061399;28;20230;-80
2021/10/12 06:36:52;;;;;;;72.00;35.08;;;9.50;99.90;;;;;;5061204;28;20275;-81
2021/10/12 06:39:19;;;;;;;56.22;32.80;;;9.40;99.90;;;;;;5061292;28;20670;-80
2021/10/12 06:41:46;;;;;;;54.47;33.53;;;9.50;99.90;;;;;;5060702;28;20272;-80
2021/10/12 06:44:14;;;;;;;54.80;32.70;;;9.50;99.90;;;;;;5061536;28;20202;-80
2021/10/12 06:46:41;;;;;;;55.50;34.60;;;9.50;99.90;;;;;;5060943;28;20575;-80
2021/10/12 06:49:08;;;;;;;53.88;31.27;;;9.50;99.90;;;;;;5060269;28;20206;-79
2021/10/12 06:51:35;;;;;;;47.85;31.83;;;9.50;99.90;;;;;;5059165;28;20225;-80
2021/10/12 06:54:02;;;;;;;54.50;32.55;;;9.50;99.90;;;;;;5058762;28;20202;-80
2021/10/12 06:56:29;;;;;;;52.53;31.55;;;9.50;99.90;;;;;;5058024;28;20207;-80
2021/10/12 06:58:56;;;;;;;49.08;30.52;;;9.50;99.90;;;;;;5059188;28;20209;-80
2021/10/12 07:01:24;;;;;;;50.92;31.83;;;9.50;99.90;;;;;;5059476;28;20236;-80
2021/10/12 07:03:51;;;;;;;48.58;29.65;;;9.50;99.90;;;;;;5059035;28;20285;-79
2021/10/12 07:06:18;;;;;;;44.25;28.02;;;9.50;99.90;;;;;;5059755;28;20573;-80
2021/10/12 07:08:45;;;;;;;59.30;30.17;;;9.50;99.90;;;;;;5058833;28;20216;-80
2021/10/12 07:11:11;;;;;;;47.78;29.05;;;9.50;99.90;;;;;;5060162;28;20240;-79
2021/10/12 07:13:38;;;;;;;48.33;28.55;;;9.60;99.90;;;;;;5059186;28;20213;-80
2021/10/12 07:16:05;;;;;;;50.45;30.70;;;9.60;99.90;;;;;;5062713;28;20217;-80
2021/10/12 07:18:34;;;;;;;44.30;27.63;;;9.60;99.90;;;;;;5076212;28;20214;-79
2021/10/12 07:21:01;;;;;;;46.38;29.33;;;9.60;99.90;;;;;;5070835;28;20293;-82
2021/10/12 07:23:27;;;;;;;45.88;28.65;;;9.60;99.90;;;;;;5063243;28;20294;-81
2021/10/12 07:25:54;;;;;;;46.92;28.42;;;9.70;99.90;;;;;;5064197;28;20234;-80
2021/10/12 07:28:21;;;;;;;45.90;27.80;;;9.70;99.90;;;;;;5073339;28;20217;-80
2021/10/12 07:30:48;;;;;;;44.30;27.40;;;9.70;99.90;;;;;;5075852;28;20230;-81
2021/10/12 07:33:15;;;;;;;46.03;27.20;;;9.80;99.90;;;;;;5074848;28;20270;-80
2021/10/12 07:35:44;;;;;;;41.88;27.02;;;9.90;99.90;;;;;;5065169;28;20270;-79
2021/10/12 07:38:13;;;;;;;39.58;26.25;;;9.90;99.90;;;;;;5076245;28;20210;-83
2021/10/12 07:40:41;;;;;;;37.95;25.08;;;10.00;99.90;;;;;;5070051;28;20325;-80
2021/10/12 07:43:08;;;;;;;39.35;24.90;;;10.10;99.90;;;;;;5077444;28;20285;-80
2021/10/12 07:45:35;;;;;;;40.10;25.60;;;10.20;99.90;;;;;;5068568;28;20226;-79
2021/10/12 07:48:02;;;;;;;36.53;24.70;;;10.30;99.90;;;;;;5058284;28;20207;-79
2021/10/12 07:50:29;;;;;;;35.90;24.73;;;10.40;99.90;;;;;;5057430;28;20230;-78
2021/10/12 07:52:57;;;;;;;34.17;22.25;;;10.60;99.90;;;;;;5057964;28;20202;-78
2021/10/12 07:55:30;;;;;;;35.60;23.00;;;10.80;99.90;;;;;;5057362;28;20230;-78
2021/10/12 07:57:58;;;;;;;36.13;23.05;;;10.90;99.90;;;;;;5056951;28;20214;-78
2021/10/12 08:00:28;;;;;;;31.98;20.98;;;11.00;98.20;;;;;;5056936;28;20614;-79
2021/10/12 08:02:55;;;;;;;27.85;21.25;;;11.10;97.10;;;;;;5057427;28;20224;-79
2021/10/12 08:05:22;;;;;;;31.25;21.52;;;11.30;95.60;;;;;;5058959;28;20217;-78
2021/10/12 08:07:50;;;;;;;29.35;20.17;;;11.40;94.90;;;;;;5057652;28;20220;-78
2021/10/12 08:10:18;;;;;;;33.35;21.98;;;11.60;93.30;;;;;;5059657;28;20742;-78
2021/10/12 08:12:46;;;;;;;29.77;21.60;;;11.60;92.30;;;;;;5057737;28;20303;-79
2021/10/12 08:15:14;;;;;;;27.83;19.42;;;11.70;92.00;;;;;;5057502;28;20208;-77
2021/10/12 08:17:41;;;;;;;30.05;20.10;;;11.80;91.20;;;;;;5055774;28;20268;-77
2021/10/12 08:20:08;;;;;;;24.02;17.17;;;12.10;90.60;;;;;;5053074;28;20225;-77
2021/10/12 08:22:35;;;;;;;28.55;18.50;;;12.20;88.80;;;;;;5052917;28;20228;-77
2021/10/12 08:25:02;;;;;;;21.65;16.65;;;12.20;86.70;;;;;;5056273;28;20200;-77
2021/10/12 08:27:31;;;;;;;24.42;16.95;;;12.20;84.80;;;;;;5056617;28;20213;-77
2021/10/12 08:29:57;;;;;;;27.42;19.75;;;12.30;86.80;;;;;;5056050;28;20213;-77
2021/10/12 08:32:24;;;;;;;23.30;17.27;;;12.40;84.80;;;;;;5056816;28;20212;-78
2021/10/12 08:34:51;;;;;;;29.10;17.70;;;12.40;83.30;;;;;;5057759;28;20217;-79
2021/10/12 08:37:18;;;;;;;21.05;16.85;;;12.40;84.10;;;;;;5056240;28;20208;-77
2021/10/12 08:39:45;;;;;;;24.63;16.30;;;12.40;84.30;;;;;;5052150;28;20295;-77
2021/10/12 08:42:22;;;;;;;22.70;16.13;;;12.30;85.60;;;;;;5057106;28;20208;-79
2021/10/12 08:44:57;;;;;;;25.35;17.20;;;12.30;84.60;;;;;;5063486;28;20199;-77
2021/10/12 08:47:26;;;;;;;22.65;15.70;;;12.20;83.80;;;;;;5074274;28;20204;-78
2021/10/12 08:49:53;;;;;;;24.25;16.80;;;12.20;85.20;;;;;;5068902;28;20274;-78
2021/10/12 08:52:21;;;;;;;26.23;16.98;;;12.30;84.10;;;;;;5054956;28;20209;-78
2021/10/12 08:54:48;;;;;;;29.20;16.95;;;12.20;83.80;;;;;;5059137;28;20239;-78
2021/10/12 08:57:27;;;;;;;21.90;16.38;;;12.20;84.60;;;;;;5074009;28;20240;-77
2021/10/12 08:59:56;;;;;;;21.85;16.10;;;12.20;85.00;;;;;;5062773;28;20205;-78
2021/10/12 09:02:25;;;;;;;19.98;15.38;;;12.10;85.70;;;;;;5067966;28;20470;-78
2021/10/12 09:04:52;;;;;;;22.10;16.70;;;12.00;85.60;;;;;;5091670;28;20187;-78
2021/10/12 09:07:20;;;;;;;24.77;17.13;;;12.00;86.50;;;;;;5080276;28;20707;-79
2021/10/12 09:09:48;;;;;;;23.48;17.20;;;12.10;86.60;;;;;;5070870;28;20502;-78
2021/10/12 09:12:16;;;;;;;21.02;16.73;;;12.10;86.60;;;;;;5084845;28;20217;-79
2021/10/12 09:14:56;;;;;;;22.08;16.98;;;12.10;85.80;;;;;;5069950;28;20290;-78
2021/10/12 09:17:31;;;;;;;24.20;17.35;;;12.10;86.60;;;;;;5060470;28;20211;-77
2021/10/12 09:19:58;;;;;;;24.45;17.92;;;12.00;86.50;;;;;;5059781;28;20575;-78
2021/10/12 09:22:25;;;;;;;27.60;18.58;;;11.90;87.30;;;;;;5059646;28;20216;-78
2021/10/12 09:24:52;;;;;;;22.45;17.20;;;11.90;87.20;;;;;;5063862;28;20266;-77
2021/10/12 09:27:22;;;;;;;28.73;17.80;;;11.90;87.90;;;;;;5060616;28;20211;-78
2021/10/12 09:29:50;;;;;;;24.85;17.45;;;11.80;89.40;;;;;;5066521;28;20183;-78
2021/10/12 09:32:22;;;;;;;23.50;17.70;;;11.90;90.50;;;;;;5074617;28;20199;-78
2021/10/12 09:35:02;;;;;;;21.45;15.63;;;11.90;90.00;;;;;;5052496;28;20267;-76
2021/10/12 09:37:29;;;;;;;23.85;17.85;;;12.10;90.00;;;;;;5056079;28;20209;-76
2021/10/12 09:39:56;;;;;;;20.42;15.95;;;12.10;89.20;;;;;;5057092;28;20654;-77
2021/10/12 09:42:23;;;;;;;27.35;16.25;;;12.30;87.70;;;;;;5059540;28;20213;-76
2021/10/12 09:44:52;;;;;;;23.42;16.27;;;12.40;86.90;;;;;;5055068;28;20238;-76
2021/10/12 09:47:22;;;;;;;22.85;15.65;;;12.40;82.70;;;;;;5072861;28;20204;-76
2021/10/12 09:49:50;;;;;;;22.77;15.25;;;12.50;82.80;;;;;;5065451;28;20240;-76
2021/10/12 09:52:17;;;;;;;20.27;16.00;;;12.60;81.30;;;;;;5058020;28;20224;-76
2021/10/12 09:54:48;;;;;;;19.00;15.77;;;12.60;81.10;;;;;;5060796;28;20270;-76
2021/10/12 09:57:16;;;;;;;23.58;15.57;;;12.60;79.90;;;;;;5058020;28;20204;-76
2021/10/12 09:59:44;;;;;;;24.50;16.00;;;12.60;80.40;;;;;;5073828;28;20246;-76
2021/10/12 10:02:15;;;;;;;21.23;15.43;;;12.80;80.50;;;;;;5078199;28;20225;-75
2021/10/12 10:04:44;;;;;;;22.27;16.05;;;13.00;79.00;;;;;;5075168;28;20234;-75
2021/10/12 10:07:18;;;;;;;20.10;14.90;;;13.10;78.40;;;;;;5071722;28;20191;-76
2021/10/12 10:09:45;;;;;;;18.95;14.32;;;13.30;77.50;;;;;;5073449;28;20264;-76
2021/10/12 10:12:13;;;;;;;17.88;14.18;;;13.50;74.80;;;;;;5067581;28;20209;-76
2021/10/12 10:14:40;;;;;;;18.30;14.00;;;13.40;73.30;;;;;;5058347;28;20281;-75
2021/10/12 10:17:08;;;;;;;23.70;14.50;;;13.60;72.40;;;;;;5057964;28;20567;-77
2021/10/12 10:19:37;;;;;;;15.57;13.50;;;13.60;71.40;;;;;;5059459;28;20210;-77
2021/10/12 10:22:05;;;;;;;17.40;14.70;;;13.70;72.70;;;;;;5058391;28;20244;-76
2021/10/12 10:24:45;;;;;;;20.08;15.40;;;13.70;71.10;;;;;;5058301;28;20226;-77
2021/10/12 10:27:35;;;;;;;19.92;14.35;;;13.60;70.80;;;;;;5042497;28;20294;-76
2021/10/12 10:30:20;;;;;;;20.00;15.30;;;13.80;71.90;;;;;;5050690;28;20210;-77
2021/10/12 10:32:48;;;;;;;15.65;13.30;;;13.60;70.50;;;;;;5058121;28;20212;-76
2021/10/12 10:35:15;;;;;;;19.58;14.40;;;13.30;70.60;;;;;;5061449;28;20233;-77
2021/10/12 10:37:46;;;;;;;19.70;14.05;;;13.20;73.40;;;;;;5061759;28;20213;-78
2021/10/12 10:40:27;;;;;;;17.48;13.88;;;13.20;73.00;;;;;;5064022;28;20231;-78
2021/10/12 10:42:59;;;;;;;20.27;13.88;;;13.00;73.20;;;;;;5063273;28;20204;-77
2021/10/12 10:45:45;;;;;;;18.38;14.40;;;12.90;73.40;;;;;;5060403;28;20231;-77
2021/10/12 10:48:14;;;;;;;18.02;12.65;;;12.80;74.50;;;;;;5055848;28;20204;-77
2021/10/12 10:50:41;;;;;;;14.98;12.80;;;12.50;76.60;;;;;;5059462;28;20221;-77
2021/10/12 10:53:11;;;;;;;17.08;12.95;;;12.70;77.10;;;;;;5063580;28;20284;-77
2021/10/12 10:55:41;;;;;;;18.40;13.40;;;12.80;76.10;;;;;;5067601;28;20204;-76
2021/10/12 10:58:16;;;;;;;18.38;12.90;;;12.90;75.90;;;;;;5068488;28;20201;-77
2021/10/12 11:00:46;;;;;;;18.73;13.82;;;13.10;75.10;;;;;;5069953;28;20234;-77
2021/10/12 11:03:40;;;;;;;21.98;13.48;;;13.20;73.00;;;;;;5068085;28;20626;-76
2021/10/12 11:06:18;;;;;;;16.73;12.43;;;13.40;70.80;;;;;;5058396;28;20206;-77
2021/10/12 11:09:01;;;;;;;19.38;12.15;;;13.60;71.10;;;;;;5058528;28;20202;-76
2021/10/12 11:11:33;;;;;;;13.55;12.05;;;13.80;71.00;;;;;;5042245;28;20261;-77
2021/10/12 11:14:00;;;;;;;22.90;14.55;;;13.90;69.30;;;;;;5046750;28;20206;-77
2021/10/12 11:16:35;;;;;;;16.55;12.60;;;14.00;68.80;;;;;;5059164;28;20275;-76
2021/10/12 11:19:02;;;;;;;16.42;12.60;;;14.00;67.50;;;;;;5057872;28;20206;-77
2021/10/12 11:21:29;;;;;;;20.08;13.43;;;13.90;67.60;;;;;;5059702;28;20225;-77
2021/10/12 11:23:58;;;;;;;15.43;12.52;;;13.70;68.40;;;;;;5058810;28;20682;-76
2021/10/12 11:26:28;;;;;;;18.92;14.30;;;13.50;69.00;;;;;;5056393;28;20210;-77
2021/10/12 11:28:58;;;;;;;15.35;13.00;;;13.60;70.60;;;;;;5063621;28;20186;-77
2021/10/12 11:31:27;;;;;;;18.30;13.90;;;13.60;70.10;;;;;;5061758;28;20236;-77
2021/10/12 11:33:56;;;;;;;17.85;14.05;;;13.90;70.10;;;;;;5057941;28;20209;-77
2021/10/12 11:36:24;;;;;;;16.88;13.05;;;14.00;67.50;;;;;;5058199;28;20205;-77
2021/10/12 11:38:53;;;;;;;17.33;13.07;;;13.90;68.40;;;;;;5058475;28;20279;-77
2021/10/12 11:41:23;;;;;;;18.38;13.35;;;14.00;67.20;;;;;;5058908;28;20702;-77
2021/10/12 11:43:54;;;;;;;15.93;12.50;;;14.20;66.50;;;;;;5055981;28;20722;-77
2021/10/12 11:46:27;;;;;;;14.38;12.65;;;14.20;66.10;;;;;;5057416;28;20208;-77
2021/10/12 11:48:55;;;;;;;12.98;11.60;;;14.40;66.10;;;;;;5064656;28;20273;-77
2021/10/12 11:51:25;;;;;;;18.35;12.00;;;14.70;64.70;;;;;;5065277;28;20218;-77
2021/10/12 11:53:54;;;;;;;16.25;12.35;;;14.80;63.00;;;;;;5052456;28;20211;-77
2021/10/12 11:56:23;;;;;;;14.80;11.95;;;14.70;62.90;;;;;;5057873;28;20241;-79
2021/10/12 11:58:57;;;;;;;14.43;12.05;;;14.70;63.70;;;;;;5066876;28;20213;-77
2021/10/12 12:01:29;;;;;;;17.02;12.20;;;14.60;64.60;;;;;;5051026;28;20229;-77
2021/10/12 12:04:00;;;;;;;17.77;10.77;;;14.40;64.50;;;;;;5056488;28;20244;-76
2021/10/12 12:06:29;;;;;;;12.77;10.40;;;14.40;62.70;;;;;;5058177;28;20221;-77
2021/10/12 12:08:58;;;;;;;15.43;10.90;;;14.20;63.10;;;;;;5069147;28;20290;-76
2021/10/12 12:11:26;;;;;;;20.83;11.68;;;14.20;62.50;;;;;;5063454;28;20634;-76
2021/10/12 12:13:57;;;;;;;12.63;11.32;;;14.20;63.20;;;;;;5060846;28;20269;-77
2021/10/12 12:16:27;;;;;;;12.32;9.70;;;14.00;62.30;;;;;;5066877;28;20205;-76
2021/10/12 12:18:54;;;;;;;14.15;10.05;;;14.00;62.30;;;;;;5065697;28;20202;-78
2021/10/12 12:21:33;;;;;;;11.25;8.63;;;14.00;64.00;;;;;;5071052;28;20304;-76
2021/10/12 12:24:03;;;;;;;10.48;8.43;;;13.90;62.20;;;;;;5067325;28;20222;-77
2021/10/12 12:26:32;;;;;;;12.35;8.27;;;14.10;62.70;;;;;;5075165;28;20194;-76
2021/10/12 12:29:20;;;;;;;10.85;8.50;;;14.10;61.90;;;;;;5074447;28;20210;-76
2021/10/12 12:31:52;;;;;;;10.63;7.30;;;14.10;62.40;;;;;;5053547;28;20593;-77
2021/10/12 12:34:32;;;;;;;9.13;7.75;;;14.20;61.80;;;;;;5060603;28;20202;-76
2021/10/12 12:37:01;;;;;;;11.05;7.20;;;14.20;61.50;;;;;;5059048;28;20217;-76
2021/10/12 12:39:34;;;;;;;11.35;8.45;;;14.10;60.90;;;;;;5061772;28;20236;-77